sensor_id;sensor_type;location;lat;lon;timestamp;P1;durP1;ratioP1;P2;durP2;ratioP2
33491;SDS011;20010;51.488;7.232;2022-09-24T00:01:32;13.35;;;12.10;;
33491;SDS011;20010;51.488;7.232;2022-09-24T00:04:02;13.48;;;11.85;;
33491;SDS011;20010;51.488;7.232;2022-09-24T00:06:35;13.82;;;12.50;;
33491;SDS011;20010;51.488;7.232;2022-09-24T00:09:06;13.45;;;12.45;;
33491;SDS011;20010;51.488;7.232;2022-09-24T00:11:32;12.82;;;11.82;;
33491;SDS011;20010;51.488;7.232;2022-09-24T00:14:00;13.75;;;12.60;;
33491;SDS011;20010;51.488;7.232;2022-09-24T00:16:28;15.48;;;13.93;;
33491;SDS011;20010;51.488;7.232;2022-09-24T00:18:59;13.93;;;12.77;;
33491;SDS011;20010;51.488;7.232;2022-09-24T00:21:37;14.32;;;13.13;;
33491;SDS011;20010;51.488;7.232;2022-09-24T00:24:06;15.88;;;14.30;;
33491;SDS011;20010;51.488;7.232;2022-09-24T00:26:34;16.30;;;14.68;;
33491;SDS011;20010;51.488;7.232;2022-09-24T00:29:21;15.45;;;14.23;;
33491;SDS011;20010;51.488;7.232;2022-09-24T00:31:50;14.35;;;13.30;;
33491;SDS011;20010;51.488;7.232;2022-09-24T00:34:18;16.02;;;14.60;;
33491;SDS011;20010;51.488;7.232;2022-09-24T00:36:45;16.75;;;15.32;;
33491;SDS011;20010;51.488;7.232;2022-09-24T00:39:12;15.25;;;13.95;;
33491;SDS011;20010;51.488;7.232;2022-09-24T00:41:39;15.63;;;14.30;;
33491;SDS011;20010;51.488;7.232;2022-09-24T00:47:10;14.50;;;13.40;;
33491;SDS011;20010;51.488;7.232;2022-09-24T00:49:39;15.02;;;13.85;;
33491;SDS011;20010;51.488;7.232;2022-09-24T00:52:07;14.75;;;13.63;;
33491;SDS011;20010;51.488;7.232;2022-09-24T00:54:34;14.93;;;13.75;;
33491;SDS011;20010;51.488;7.232;2022-09-24T00:57:02;16.05;;;14.60;;
33491;SDS011;20010;51.488;7.232;2022-09-24T00:59:29;14.35;;;13.15;;
33491;SDS011;20010;51.488;7.232;2022-09-24T01:01:56;15.55;;;14.10;;
33491;SDS011;20010;51.488;7.232;2022-09-24T01:04:25;16.15;;;14.65;;
33491;SDS011;20010;51.488;7.232;2022-09-24T01:06:53;15.90;;;14.70;;
33491;SDS011;20010;51.488;7.232;2022-09-24T01:09:22;15.13;;;14.02;;
33491;SDS011;20010;51.488;7.232;2022-09-24T01:17:26;16.80;;;15.20;;
33491;SDS011;20010;51.488;7.232;2022-09-24T01:20:26;16.13;;;14.65;;
33491;SDS011;20010;51.488;7.232;2022-09-24T01:31:35;17.73;;;16.20;;
33491;SDS011;20010;51.488;7.232;2022-09-24T01:34:09;16.80;;;15.40;;
33491;SDS011;20010;51.488;7.232;2022-09-24T01:36:40;19.40;;;17.38;;
33491;SDS011;20010;51.488;7.232;2022-09-24T01:39:10;18.30;;;16.75;;
33491;SDS011;20010;51.488;7.232;2022-09-24T01:41:39;17.60;;;16.20;;
33491;SDS011;20010;51.488;7.232;2022-09-24T01:44:08;17.67;;;16.02;;
33491;SDS011;20010;51.488;7.232;2022-09-24T01:46:37;20.05;;;16.63;;
33491;SDS011;20010;51.488;7.232;2022-09-24T01:49:04;17.20;;;15.75;;
33491;SDS011;20010;51.488;7.232;2022-09-24T01:54:17;18.30;;;16.63;;
33491;SDS011;20010;51.488;7.232;2022-09-24T01:56:51;18.60;;;16.97;;
33491;SDS011;20010;51.488;7.232;2022-09-24T01:59:27;19.15;;;17.25;;
33491;SDS011;20010;51.488;7.232;2022-09-24T02:02:03;18.55;;;16.95;;
33491;SDS011;20010;51.488;7.232;2022-09-24T02:04:42;16.50;;;15.20;;
33491;SDS011;20010;51.488;7.232;2022-09-24T02:09:44;19.60;;;17.77;;
33491;SDS011;20010;51.488;7.232;2022-09-24T02:12:19;18.35;;;16.75;;
33491;SDS011;20010;51.488;7.232;2022-09-24T02:15:02;18.30;;;16.77;;
33491;SDS011;20010;51.488;7.232;2022-09-24T02:17:36;20.33;;;18.35;;
33491;SDS011;20010;51.488;7.232;2022-09-24T02:20:08;20.15;;;18.42;;
33491;SDS011;20010;51.488;7.232;2022-09-24T02:22:39;20.83;;;19.08;;
33491;SDS011;20010;51.488;7.232;2022-09-24T02:25:09;22.85;;;20.50;;
33491;SDS011;20010;51.488;7.232;2022-09-24T02:27:40;20.45;;;18.55;;
33491;SDS011;20010;51.488;7.232;2022-09-24T02:30:07;19.67;;;17.98;;
33491;SDS011;20010;51.488;7.232;2022-09-24T02:32:35;20.23;;;18.23;;
33491;SDS011;20010;51.488;7.232;2022-09-24T02:35:05;20.67;;;18.90;;
33491;SDS011;20010;51.488;7.232;2022-09-24T02:37:36;20.67;;;18.67;;
33491;SDS011;20010;51.488;7.232;2022-09-24T02:40:06;19.77;;;18.17;;
33491;SDS011;20010;51.488;7.232;2022-09-24T02:42:34;20.02;;;18.33;;
33491;SDS011;20010;51.488;7.232;2022-09-24T02:45:03;20.52;;;18.63;;
33491;SDS011;20010;51.488;7.232;2022-09-24T02:47:30;21.45;;;19.55;;
33491;SDS011;20010;51.488;7.232;2022-09-24T02:49:57;20.55;;;18.85;;
33491;SDS011;20010;51.488;7.232;2022-09-24T02:52:24;21.30;;;19.48;;
33491;SDS011;20010;51.488;7.232;2022-09-24T02:54:51;21.05;;;19.20;;
33491;SDS011;20010;51.488;7.232;2022-09-24T02:57:18;21.05;;;19.25;;
33491;SDS011;20010;51.488;7.232;2022-09-24T02:59:45;21.45;;;19.60;;
33491;SDS011;20010;51.488;7.232;2022-09-24T03:02:12;22.27;;;19.98;;
33491;SDS011;20010;51.488;7.232;2022-09-24T03:04:40;22.75;;;20.75;;
33491;SDS011;20010;51.488;7.232;2022-09-24T03:07:07;22.48;;;20.33;;
33491;SDS011;20010;51.488;7.232;2022-09-24T03:09:35;23.33;;;21.17;;
33491;SDS011;20010;51.488;7.232;2022-09-24T03:12:02;21.55;;;19.65;;
33491;SDS011;20010;51.488;7.232;2022-09-24T03:14:30;21.77;;;19.80;;
33491;SDS011;20010;51.488;7.232;2022-09-24T03:16:57;20.85;;;18.85;;
33491;SDS011;20010;51.488;7.232;2022-09-24T03:19:23;21.05;;;19.20;;
33491;SDS011;20010;51.488;7.232;2022-09-24T03:21:50;22.38;;;20.08;;
33491;SDS011;20010;51.488;7.232;2022-09-24T03:24:17;23.38;;;21.17;;
33491;SDS011;20010;51.488;7.232;2022-09-24T03:26:44;22.48;;;20.48;;
33491;SDS011;20010;51.488;7.232;2022-09-24T03:29:11;23.70;;;21.45;;
33491;SDS011;20010;51.488;7.232;2022-09-24T03:31:37;24.48;;;22.17;;
33491;SDS011;20010;51.488;7.232;2022-09-24T03:34:04;22.92;;;20.95;;
33491;SDS011;20010;51.488;7.232;2022-09-24T03:36:31;25.02;;;22.52;;
33491;SDS011;20010;51.488;7.232;2022-09-24T03:38:58;24.38;;;21.98;;
33491;SDS011;20010;51.488;7.232;2022-09-24T03:41:25;25.63;;;23.08;;
33491;SDS011;20010;51.488;7.232;2022-09-24T03:43:53;26.02;;;23.50;;
33491;SDS011;20010;51.488;7.232;2022-09-24T03:46:20;25.25;;;22.83;;
33491;SDS011;20010;51.488;7.232;2022-09-24T03:48:49;25.63;;;23.38;;
33491;SDS011;20010;51.488;7.232;2022-09-24T03:51:16;24.33;;;22.02;;
33491;SDS011;20010;51.488;7.232;2022-09-24T03:53:45;27.38;;;24.85;;
33491;SDS011;20010;51.488;7.232;2022-09-24T03:56:13;25.02;;;22.65;;
33491;SDS011;20010;51.488;7.232;2022-09-24T03:58:41;25.52;;;23.23;;
33491;SDS011;20010;51.488;7.232;2022-09-24T04:01:12;27.60;;;24.75;;
33491;SDS011;20010;51.488;7.232;2022-09-24T04:03:47;23.52;;;21.23;;
33491;SDS011;20010;51.488;7.232;2022-09-24T04:06:15;23.42;;;21.33;;
33491;SDS011;20010;51.488;7.232;2022-09-24T04:08:50;24.85;;;22.38;;
33491;SDS011;20010;51.488;7.232;2022-09-24T04:11:16;23.65;;;21.35;;
33491;SDS011;20010;51.488;7.232;2022-09-24T04:13:43;23.38;;;21.05;;
33491;SDS011;20010;51.488;7.232;2022-09-24T04:16:10;23.08;;;20.98;;
33491;SDS011;20010;51.488;7.232;2022-09-24T04:18:37;23.75;;;21.55;;
33491;SDS011;20010;51.488;7.232;2022-09-24T04:21:04;23.25;;;21.25;;
33491;SDS011;20010;51.488;7.232;2022-09-24T04:23:32;23.50;;;21.05;;
33491;SDS011;20010;51.488;7.232;2022-09-24T04:25:59;22.35;;;20.27;;
33491;SDS011;20010;51.488;7.232;2022-09-24T04:28:27;22.95;;;20.60;;
33491;SDS011;20010;51.488;7.232;2022-09-24T04:30:55;23.95;;;21.77;;
33491;SDS011;20010;51.488;7.232;2022-09-24T04:33:22;26.83;;;24.13;;
33491;SDS011;20010;51.488;7.232;2022-09-24T04:35:49;21.65;;;19.42;;
33491;SDS011;20010;51.488;7.232;2022-09-24T04:38:15;21.40;;;19.60;;
33491;SDS011;20010;51.488;7.232;2022-09-24T04:40:43;22.33;;;19.95;;
33491;SDS011;20010;51.488;7.232;2022-09-24T04:43:12;22.48;;;20.58;;
33491;SDS011;20010;51.488;7.232;2022-09-24T04:45:39;23.60;;;21.45;;
33491;SDS011;20010;51.488;7.232;2022-09-24T04:48:08;25.73;;;23.05;;
33491;SDS011;20010;51.488;7.232;2022-09-24T04:50:35;21.75;;;19.52;;
33491;SDS011;20010;51.488;7.232;2022-09-24T04:53:10;22.02;;;19.95;;
33491;SDS011;20010;51.488;7.232;2022-09-24T04:55:37;20.95;;;19.05;;
33491;SDS011;20010;51.488;7.232;2022-09-24T04:58:04;20.58;;;18.60;;
33491;SDS011;20010;51.488;7.232;2022-09-24T05:00:31;21.23;;;19.10;;
33491;SDS011;20010;51.488;7.232;2022-09-24T05:02:59;20.85;;;18.63;;
33491;SDS011;20010;51.488;7.232;2022-09-24T05:05:30;20.42;;;18.50;;
33491;SDS011;20010;51.488;7.232;2022-09-24T05:07:58;31.45;;;28.20;;
33491;SDS011;20010;51.488;7.232;2022-09-24T05:10:27;27.95;;;25.25;;
33491;SDS011;20010;51.488;7.232;2022-09-24T05:12:55;26.73;;;24.08;;
33491;SDS011;20010;51.488;7.232;2022-09-24T05:15:21;21.45;;;19.50;;
33491;SDS011;20010;51.488;7.232;2022-09-24T05:17:48;21.35;;;19.25;;
33491;SDS011;20010;51.488;7.232;2022-09-24T05:20:15;20.75;;;18.75;;
33491;SDS011;20010;51.488;7.232;2022-09-24T05:22:43;26.30;;;23.75;;
33491;SDS011;20010;51.488;7.232;2022-09-24T05:25:11;22.35;;;20.25;;
33491;SDS011;20010;51.488;7.232;2022-09-24T05:27:42;20.65;;;18.85;;
33491;SDS011;20010;51.488;7.232;2022-09-24T05:30:13;22.35;;;20.38;;
33491;SDS011;20010;51.488;7.232;2022-09-24T05:32:41;20.80;;;18.98;;
33491;SDS011;20010;51.488;7.232;2022-09-24T05:35:08;22.00;;;19.95;;
33491;SDS011;20010;51.488;7.232;2022-09-24T05:37:37;23.55;;;21.30;;
33491;SDS011;20010;51.488;7.232;2022-09-24T05:40:04;20.35;;;18.42;;
33491;SDS011;20010;51.488;7.232;2022-09-24T05:42:51;19.85;;;18.15;;
33491;SDS011;20010;51.488;7.232;2022-09-24T05:45:24;18.98;;;17.27;;
33491;SDS011;20010;51.488;7.232;2022-09-24T05:47:50;19.92;;;17.98;;
33491;SDS011;20010;51.488;7.232;2022-09-24T05:50:17;20.55;;;18.85;;
33491;SDS011;20010;51.488;7.232;2022-09-24T05:52:44;19.67;;;17.73;;
33491;SDS011;20010;51.488;7.232;2022-09-24T05:55:11;17.70;;;16.30;;
33491;SDS011;20010;51.488;7.232;2022-09-24T05:57:38;17.65;;;16.15;;
33491;SDS011;20010;51.488;7.232;2022-09-24T06:00:05;18.23;;;16.55;;
33491;SDS011;20010;51.488;7.232;2022-09-24T06:02:32;17.08;;;15.55;;
33491;SDS011;20010;51.488;7.232;2022-09-24T06:04:59;18.23;;;16.42;;
33491;SDS011;20010;51.488;7.232;2022-09-24T06:07:26;17.67;;;15.90;;
33491;SDS011;20010;51.488;7.232;2022-09-24T06:09:53;16.30;;;14.85;;
33491;SDS011;20010;51.488;7.232;2022-09-24T06:12:20;19.90;;;18.13;;
33491;SDS011;20010;51.488;7.232;2022-09-24T06:14:47;18.15;;;16.65;;
33491;SDS011;20010;51.488;7.232;2022-09-24T06:17:14;18.85;;;17.25;;
33491;SDS011;20010;51.488;7.232;2022-09-24T06:19:40;17.30;;;15.82;;
33491;SDS011;20010;51.488;7.232;2022-09-24T06:22:08;16.67;;;15.05;;
33491;SDS011;20010;51.488;7.232;2022-09-24T06:24:34;20.23;;;18.38;;
33491;SDS011;20010;51.488;7.232;2022-09-24T06:27:02;17.98;;;16.38;;
33491;SDS011;20010;51.488;7.232;2022-09-24T06:29:29;17.95;;;16.30;;
33491;SDS011;20010;51.488;7.232;2022-09-24T06:31:55;16.90;;;15.32;;
33491;SDS011;20010;51.488;7.232;2022-09-24T06:34:22;17.10;;;15.43;;
33491;SDS011;20010;51.488;7.232;2022-09-24T06:36:52;17.27;;;15.70;;
33491;SDS011;20010;51.488;7.232;2022-09-24T06:39:21;15.90;;;14.48;;
33491;SDS011;20010;51.488;7.232;2022-09-24T06:41:48;16.67;;;15.02;;
33491;SDS011;20010;51.488;7.232;2022-09-24T06:44:16;18.30;;;16.55;;
33491;SDS011;20010;51.488;7.232;2022-09-24T06:46:45;17.42;;;15.85;;
33491;SDS011;20010;51.488;7.232;2022-09-24T06:49:12;17.23;;;15.80;;
33491;SDS011;20010;51.488;7.232;2022-09-24T06:51:39;17.02;;;15.25;;
33491;SDS011;20010;51.488;7.232;2022-09-24T06:54:07;18.65;;;16.75;;
33491;SDS011;20010;51.488;7.232;2022-09-24T06:56:34;21.27;;;19.27;;
33491;SDS011;20010;51.488;7.232;2022-09-24T06:59:00;17.67;;;16.00;;
33491;SDS011;20010;51.488;7.232;2022-09-24T07:01:28;17.77;;;16.17;;
33491;SDS011;20010;51.488;7.232;2022-09-24T07:03:55;16.45;;;15.10;;
33491;SDS011;20010;51.488;7.232;2022-09-24T07:06:21;16.58;;;15.00;;
33491;SDS011;20010;51.488;7.232;2022-09-24T07:08:51;15.43;;;14.13;;
33491;SDS011;20010;51.488;7.232;2022-09-24T07:11:18;18.23;;;16.23;;
33491;SDS011;20010;51.488;7.232;2022-09-24T07:13:45;17.35;;;15.77;;
33491;SDS011;20010;51.488;7.232;2022-09-24T07:16:12;17.27;;;15.50;;
33491;SDS011;20010;51.488;7.232;2022-09-24T07:18:39;17.55;;;15.80;;
33491;SDS011;20010;51.488;7.232;2022-09-24T07:21:05;16.83;;;15.25;;
33491;SDS011;20010;51.488;7.232;2022-09-24T07:23:32;15.90;;;14.50;;
33491;SDS011;20010;51.488;7.232;2022-09-24T07:25:59;17.65;;;16.02;;
33491;SDS011;20010;51.488;7.232;2022-09-24T07:28:26;16.95;;;15.32;;
33491;SDS011;20010;51.488;7.232;2022-09-24T07:30:56;18.77;;;16.85;;
33491;SDS011;20010;51.488;7.232;2022-09-24T07:33:24;17.45;;;15.80;;
33491;SDS011;20010;51.488;7.232;2022-09-24T07:35:51;17.30;;;15.35;;
33491;SDS011;20010;51.488;7.232;2022-09-24T07:38:18;17.60;;;15.82;;
33491;SDS011;20010;51.488;7.232;2022-09-24T07:40:45;23.48;;;17.30;;
33491;SDS011;20010;51.488;7.232;2022-09-24T07:43:12;16.30;;;14.90;;
33491;SDS011;20010;51.488;7.232;2022-09-24T07:45:40;19.25;;;17.40;;
33491;SDS011;20010;51.488;7.232;2022-09-24T07:48:07;16.50;;;14.95;;
33491;SDS011;20010;51.488;7.232;2022-09-24T07:50:39;17.48;;;15.80;;
33491;SDS011;20010;51.488;7.232;2022-09-24T07:53:10;16.52;;;14.93;;
33491;SDS011;20010;51.488;7.232;2022-09-24T07:55:38;16.92;;;15.32;;
33491;SDS011;20010;51.488;7.232;2022-09-24T07:58:13;17.60;;;16.20;;
33491;SDS011;20010;51.488;7.232;2022-09-24T08:00:40;18.42;;;16.65;;
33491;SDS011;20010;51.488;7.232;2022-09-24T08:03:06;17.38;;;15.88;;
33491;SDS011;20010;51.488;7.232;2022-09-24T08:05:33;17.13;;;15.48;;
33491;SDS011;20010;51.488;7.232;2022-09-24T08:08:00;17.33;;;15.63;;
33491;SDS011;20010;51.488;7.232;2022-09-24T08:10:27;16.38;;;14.60;;
33491;SDS011;20010;51.488;7.232;2022-09-24T08:12:54;19.63;;;17.73;;
33491;SDS011;20010;51.488;7.232;2022-09-24T08:15:22;19.52;;;17.55;;
33491;SDS011;20010;51.488;7.232;2022-09-24T08:17:49;17.85;;;16.08;;
33491;SDS011;20010;51.488;7.232;2022-09-24T08:20:16;20.73;;;16.15;;
33491;SDS011;20010;51.488;7.232;2022-09-24T08:22:43;18.23;;;15.75;;
33491;SDS011;20010;51.488;7.232;2022-09-24T08:25:10;16.75;;;15.05;;
33491;SDS011;20010;51.488;7.232;2022-09-24T08:27:36;17.08;;;15.27;;
33491;SDS011;20010;51.488;7.232;2022-09-24T08:30:04;19.83;;;17.17;;
33491;SDS011;20010;51.488;7.232;2022-09-24T08:32:32;16.73;;;15.23;;
33491;SDS011;20010;51.488;7.232;2022-09-24T08:34:58;16.63;;;15.07;;
33491;SDS011;20010;51.488;7.232;2022-09-24T08:37:28;16.35;;;14.75;;
33491;SDS011;20010;51.488;7.232;2022-09-24T08:39:55;16.65;;;15.15;;
33491;SDS011;20010;51.488;7.232;2022-09-24T08:45:33;14.57;;;13.18;;
33491;SDS011;20010;51.488;7.232;2022-09-24T08:48:26;15.25;;;13.77;;
33491;SDS011;20010;51.488;7.232;2022-09-24T08:50:59;15.23;;;13.68;;
33491;SDS011;20010;51.488;7.232;2022-09-24T08:53:38;15.05;;;13.70;;
33491;SDS011;20010;51.488;7.232;2022-09-24T08:56:06;15.93;;;14.05;;
33491;SDS011;20010;51.488;7.232;2022-09-24T08:59:36;17.45;;;15.75;;
33491;SDS011;20010;51.488;7.232;2022-09-24T09:10:15;17.05;;;15.27;;
33491;SDS011;20010;51.488;7.232;2022-09-24T09:12:54;16.25;;;14.85;;
33491;SDS011;20010;51.488;7.232;2022-09-24T09:15:29;16.85;;;15.25;;
33491;SDS011;20010;51.488;7.232;2022-09-24T09:18:05;17.52;;;15.70;;
33491;SDS011;20010;51.488;7.232;2022-09-24T09:21:00;17.45;;;15.75;;
33491;SDS011;20010;51.488;7.232;2022-09-24T09:23:43;18.45;;;16.73;;
33491;SDS011;20010;51.488;7.232;2022-09-24T09:26:17;16.25;;;14.57;;
33491;SDS011;20010;51.488;7.232;2022-09-24T09:28:46;15.55;;;13.98;;
33491;SDS011;20010;51.488;7.232;2022-09-24T09:42:28;15.90;;;14.40;;
33491;SDS011;20010;51.488;7.232;2022-09-24T09:45:25;16.00;;;14.60;;
33491;SDS011;20010;51.488;7.232;2022-09-24T09:47:58;14.77;;;13.45;;
33491;SDS011;20010;51.488;7.232;2022-09-24T09:53:04;14.63;;;13.13;;
33491;SDS011;20010;51.488;7.232;2022-09-24T09:55:35;18.70;;;16.88;;
33491;SDS011;20010;51.488;7.232;2022-09-24T10:00:41;14.63;;;13.35;;
33491;SDS011;20010;51.488;7.232;2022-09-24T10:03:22;13.95;;;12.77;;
33491;SDS011;20010;51.488;7.232;2022-09-24T10:05:58;13.65;;;12.55;;
33491;SDS011;20010;51.488;7.232;2022-09-24T10:08:31;12.57;;;11.50;;
33491;SDS011;20010;51.488;7.232;2022-09-24T10:10:59;12.48;;;11.45;;
33491;SDS011;20010;51.488;7.232;2022-09-24T10:13:26;12.55;;;11.50;;
33491;SDS011;20010;51.488;7.232;2022-09-24T10:15:57;14.40;;;12.85;;
33491;SDS011;20010;51.488;7.232;2022-09-24T10:21:04;13.55;;;12.25;;
33491;SDS011;20010;51.488;7.232;2022-09-24T10:23:35;13.70;;;12.40;;
33491;SDS011;20010;51.488;7.232;2022-09-24T10:26:05;12.70;;;11.60;;
33491;SDS011;20010;51.488;7.232;2022-09-24T10:28:33;13.07;;;11.88;;
33491;SDS011;20010;51.488;7.232;2022-09-24T10:31:24;11.95;;;11.05;;
33491;SDS011;20010;51.488;7.232;2022-09-24T10:33:54;12.15;;;10.98;;
33491;SDS011;20010;51.488;7.232;2022-09-24T10:36:25;11.30;;;10.32;;
33491;SDS011;20010;51.488;7.232;2022-09-24T10:41:33;11.65;;;10.70;;
33491;SDS011;20010;51.488;7.232;2022-09-24T10:44:04;13.05;;;11.27;;
33491;SDS011;20010;51.488;7.232;2022-09-24T10:57:47;11.50;;;10.60;;
33491;SDS011;20010;51.488;7.232;2022-09-24T11:03:35;12.73;;;11.73;;
33491;SDS011;20010;51.488;7.232;2022-09-24T11:06:34;13.13;;;11.93;;
33491;SDS011;20010;51.488;7.232;2022-09-24T11:09:12;12.63;;;11.68;;
33491;SDS011;20010;51.488;7.232;2022-09-24T11:17:41;13.20;;;12.03;;
33491;SDS011;20010;51.488;7.232;2022-09-24T11:33:28;14.40;;;13.20;;
33491;SDS011;20010;51.488;7.232;2022-09-24T11:36:15;12.75;;;11.82;;
33491;SDS011;20010;51.488;7.232;2022-09-24T11:41:49;14.80;;;13.60;;
33491;SDS011;20010;51.488;7.232;2022-09-24T11:47:27;14.43;;;13.27;;
33491;SDS011;20010;51.488;7.232;2022-09-24T11:52:58;13.93;;;12.75;;
33491;SDS011;20010;51.488;7.232;2022-09-24T11:55:36;20.15;;;18.45;;
33491;SDS011;20010;51.488;7.232;2022-09-24T11:58:28;18.85;;;17.15;;
33491;SDS011;20010;51.488;7.232;2022-09-24T12:06:23;14.85;;;13.55;;
33491;SDS011;20010;51.488;7.232;2022-09-24T12:11:36;16.33;;;14.82;;
33491;SDS011;20010;51.488;7.232;2022-09-24T12:14:11;16.15;;;14.77;;
33491;SDS011;20010;51.488;7.232;2022-09-24T12:16:42;16.13;;;14.82;;
33491;SDS011;20010;51.488;7.232;2022-09-24T12:19:17;15.20;;;14.00;;
33491;SDS011;20010;51.488;7.232;2022-09-24T12:22:06;16.27;;;14.68;;
33491;SDS011;20010;51.488;7.232;2022-09-24T12:24:36;19.02;;;17.33;;
33491;SDS011;20010;51.488;7.232;2022-09-24T12:27:41;16.75;;;15.35;;
33491;SDS011;20010;51.488;7.232;2022-09-24T12:38:37;15.15;;;13.93;;
33491;SDS011;20010;51.488;7.232;2022-09-24T12:41:40;16.05;;;14.73;;
33491;SDS011;20010;51.488;7.232;2022-09-24T12:51:51;15.57;;;14.30;;
33491;SDS011;20010;51.488;7.232;2022-09-24T12:54:26;16.50;;;15.10;;
33491;SDS011;20010;51.488;7.232;2022-09-24T13:02:23;17.15;;;15.52;;
33491;SDS011;20010;51.488;7.232;2022-09-24T13:07:31;17.10;;;15.40;;
33491;SDS011;20010;51.488;7.232;2022-09-24T13:10:36;18.00;;;16.33;;
33491;SDS011;20010;51.488;7.232;2022-09-24T13:12:57;16.58;;;15.20;;
33491;SDS011;20010;51.488;7.232;2022-09-24T13:20:42;16.98;;;15.52;;
33491;SDS011;20010;51.488;7.232;2022-09-24T13:25:58;17.67;;;16.25;;
33491;SDS011;20010;51.488;7.232;2022-09-24T13:28:48;18.38;;;16.63;;
33491;SDS011;20010;51.488;7.232;2022-09-24T13:31:29;17.10;;;15.80;;
33491;SDS011;20010;51.488;7.232;2022-09-24T13:36:53;16.90;;;15.60;;
33491;SDS011;20010;51.488;7.232;2022-09-24T13:44:55;16.55;;;15.30;;
33491;SDS011;20010;51.488;7.232;2022-09-24T13:50:02;16.13;;;14.73;;
33491;SDS011;20010;51.488;7.232;2022-09-24T13:52:33;16.33;;;14.93;;
33491;SDS011;20010;51.488;7.232;2022-09-24T13:55:10;16.58;;;15.13;;
33491;SDS011;20010;51.488;7.232;2022-09-24T13:57:46;16.65;;;15.25;;
33491;SDS011;20010;51.488;7.232;2022-09-24T14:00:15;16.73;;;15.32;;
33491;SDS011;20010;51.488;7.232;2022-09-24T14:05:32;15.40;;;14.10;;
33491;SDS011;20010;51.488;7.232;2022-09-24T14:08:05;17.13;;;15.65;;
33491;SDS011;20010;51.488;7.232;2022-09-24T14:10:34;17.52;;;16.05;;
33491;SDS011;20010;51.488;7.232;2022-09-24T14:13:15;17.80;;;16.30;;
33491;SDS011;20010;51.488;7.232;2022-09-24T14:18:24;20.63;;;19.02;;
33491;SDS011;20010;51.488;7.232;2022-09-24T14:21:35;17.58;;;16.17;;
33491;SDS011;20010;51.488;7.232;2022-09-24T14:26:46;17.90;;;16.45;;
33491;SDS011;20010;51.488;7.232;2022-09-24T14:29:23;18.83;;;17.23;;
33491;SDS011;20010;51.488;7.232;2022-09-24T14:34:58;18.98;;;17.38;;
33491;SDS011;20010;51.488;7.232;2022-09-24T14:37:30;19.27;;;17.60;;
33491;SDS011;20010;51.488;7.232;2022-09-24T14:40:06;18.95;;;17.30;;
33491;SDS011;20010;51.488;7.232;2022-09-24T14:42:40;19.15;;;17.45;;
33491;SDS011;20010;51.488;7.232;2022-09-24T14:45:21;18.30;;;16.90;;
33491;SDS011;20010;51.488;7.232;2022-09-24T14:47:58;18.58;;;17.08;;
33491;SDS011;20010;51.488;7.232;2022-09-24T14:50:31;20.10;;;18.40;;
33491;SDS011;20010;51.488;7.232;2022-09-24T14:53:10;17.85;;;16.60;;
33491;SDS011;20010;51.488;7.232;2022-09-24T14:55:49;19.27;;;17.77;;
33491;SDS011;20010;51.488;7.232;2022-09-24T15:01:04;18.92;;;16.95;;
33491;SDS011;20010;51.488;7.232;2022-09-24T15:06:26;17.92;;;16.48;;
33491;SDS011;20010;51.488;7.232;2022-09-24T15:11:23;21.65;;;19.85;;
33491;SDS011;20010;51.488;7.232;2022-09-24T15:13:58;20.08;;;18.48;;
33491;SDS011;20010;51.488;7.232;2022-09-24T15:16:38;20.42;;;18.63;;
33491;SDS011;20010;51.488;7.232;2022-09-24T15:21:32;18.70;;;17.20;;
33491;SDS011;20010;51.488;7.232;2022-09-24T15:23:59;20.25;;;18.58;;
33491;SDS011;20010;51.488;7.232;2022-09-24T15:26:27;18.13;;;16.30;;
33491;SDS011;20010;51.488;7.232;2022-09-24T15:28:56;18.67;;;17.10;;
33491;SDS011;20010;51.488;7.232;2022-09-24T15:31:24;20.85;;;19.02;;
33491;SDS011;20010;51.488;7.232;2022-09-24T15:33:51;19.55;;;17.85;;
33491;SDS011;20010;51.488;7.232;2022-09-24T15:36:18;20.17;;;18.48;;
33491;SDS011;20010;51.488;7.232;2022-09-24T15:38:46;19.33;;;17.63;;
33491;SDS011;20010;51.488;7.232;2022-09-24T15:41:15;19.15;;;17.27;;
33491;SDS011;20010;51.488;7.232;2022-09-24T15:43:42;19.90;;;18.27;;
33491;SDS011;20010;51.488;7.232;2022-09-24T15:46:08;20.98;;;19.23;;
33491;SDS011;20010;51.488;7.232;2022-09-24T15:48:35;21.63;;;19.73;;
33491;SDS011;20010;51.488;7.232;2022-09-24T15:51:02;19.73;;;18.23;;
33491;SDS011;20010;51.488;7.232;2022-09-24T15:53:37;19.88;;;18.27;;
33491;SDS011;20010;51.488;7.232;2022-09-24T15:56:06;19.67;;;17.98;;
33491;SDS011;20010;51.488;7.232;2022-09-24T15:58:33;17.33;;;15.98;;
33491;SDS011;20010;51.488;7.232;2022-09-24T16:01:00;17.00;;;15.70;;
33491;SDS011;20010;51.488;7.232;2022-09-24T16:03:27;18.08;;;16.55;;
33491;SDS011;20010;51.488;7.232;2022-09-24T16:05:57;16.55;;;15.25;;
33491;SDS011;20010;51.488;7.232;2022-09-24T16:08:25;17.50;;;16.02;;
33491;SDS011;20010;51.488;7.232;2022-09-24T16:10:52;17.67;;;16.33;;
33491;SDS011;20010;51.488;7.232;2022-09-24T16:13:19;26.23;;;23.98;;
33491;SDS011;20010;51.488;7.232;2022-09-24T16:15:48;21.35;;;19.33;;
33491;SDS011;20010;51.488;7.232;2022-09-24T16:18:15;19.15;;;17.65;;
33491;SDS011;20010;51.488;7.232;2022-09-24T16:20:47;17.92;;;16.52;;
33491;SDS011;20010;51.488;7.232;2022-09-24T16:23:15;16.73;;;15.32;;
33491;SDS011;20010;51.488;7.232;2022-09-24T16:25:52;17.35;;;15.98;;
33491;SDS011;20010;51.488;7.232;2022-09-24T16:28:21;17.23;;;15.73;;
33491;SDS011;20010;51.488;7.232;2022-09-24T16:30:47;17.25;;;15.85;;
33491;SDS011;20010;51.488;7.232;2022-09-24T16:33:14;18.98;;;17.38;;
33491;SDS011;20010;51.488;7.232;2022-09-24T16:35:41;18.42;;;17.05;;
33491;SDS011;20010;51.488;7.232;2022-09-24T16:38:08;18.40;;;16.90;;
33491;SDS011;20010;51.488;7.232;2022-09-24T16:40:35;19.67;;;18.00;;
33491;SDS011;20010;51.488;7.232;2022-09-24T16:43:02;19.77;;;17.95;;
33491;SDS011;20010;51.488;7.232;2022-09-24T16:45:30;19.40;;;17.80;;
33491;SDS011;20010;51.488;7.232;2022-09-24T16:47:58;17.92;;;16.50;;
33491;SDS011;20010;51.488;7.232;2022-09-24T16:50:25;17.52;;;16.17;;
33491;SDS011;20010;51.488;7.232;2022-09-24T16:52:51;19.42;;;17.77;;
33491;SDS011;20010;51.488;7.232;2022-09-24T16:55:21;17.58;;;16.23;;
33491;SDS011;20010;51.488;7.232;2022-09-24T16:57:51;17.60;;;16.10;;
33491;SDS011;20010;51.488;7.232;2022-09-24T17:00:18;18.27;;;16.77;;
33491;SDS011;20010;51.488;7.232;2022-09-24T17:02:45;19.30;;;17.70;;
33491;SDS011;20010;51.488;7.232;2022-09-24T17:05:12;18.80;;;17.20;;
33491;SDS011;20010;51.488;7.232;2022-09-24T17:07:39;18.15;;;16.75;;
33491;SDS011;20010;51.488;7.232;2022-09-24T17:10:06;18.20;;;16.48;;
33491;SDS011;20010;51.488;7.232;2022-09-24T17:12:42;20.65;;;18.65;;
33491;SDS011;20010;51.488;7.232;2022-09-24T17:15:16;18.17;;;16.60;;
33491;SDS011;20010;51.488;7.232;2022-09-24T17:17:46;18.42;;;16.90;;
33491;SDS011;20010;51.488;7.232;2022-09-24T17:20:16;18.77;;;17.17;;
33491;SDS011;20010;51.488;7.232;2022-09-24T17:22:44;17.88;;;16.38;;
33491;SDS011;20010;51.488;7.232;2022-09-24T17:25:13;19.13;;;17.45;;
33491;SDS011;20010;51.488;7.232;2022-09-24T17:27:40;18.42;;;16.92;;
33491;SDS011;20010;51.488;7.232;2022-09-24T17:30:10;19.17;;;17.42;;
33491;SDS011;20010;51.488;7.232;2022-09-24T17:32:37;17.80;;;16.25;;